createdAt,value
2018-07-03T00:02:27.722Z,97482.99
2018-07-03T00:05:02.055Z,97484.06
2018-07-03T00:07:42.536Z,97477.86
2018-07-03T00:10:20.461Z,97470.03
2018-07-03T00:12:54.496Z,97472.13
2018-07-03T00:15:31.498Z,97472.95
2018-07-03T00:18:05.820Z,97471.88
2018-07-03T00:20:44.044Z,97473.22
2018-07-03T00:23:18.098Z,97478.64
2018-07-03T00:25:52.666Z,97475.02
2018-07-03T00:28:26.667Z,97469.39
2018-07-03T00:31:10.016Z,97466.92
2018-07-03T00:36:49.336Z,97474.02
2018-07-03T00:39:19.919Z,97474.56
2018-07-03T00:41:51.286Z,97474.78
2018-07-03T00:44:21.965Z,97482.22
2018-07-03T00:46:52.011Z,97477.17
2018-07-03T00:49:21.958Z,97474.80
2018-07-03T00:51:51.906Z,97471.88
2018-07-03T00:54:22.100Z,97473.23
2018-07-03T00:56:52.312Z,97478.25
2018-07-03T00:59:22.244Z,97475.47
2018-07-03T01:01:52.245Z,97470.91
2018-07-03T01:04:22.588Z,97470.95
2018-07-03T01:06:52.419Z,97468.75
2018-07-03T01:09:22.565Z,97463.33
2018-07-03T01:11:53.428Z,97457.94
2018-07-03T01:14:23.787Z,97458.98
2018-07-03T01:16:54.367Z,97455.34
2018-07-03T01:19:24.224Z,97460.61
2018-07-03T01:21:54.315Z,97460.07
2018-07-03T01:24:24.074Z,97459.27
2018-07-03T01:26:53.971Z,97460.13
2018-07-03T01:29:23.912Z,97458.50
2018-07-03T01:31:54.545Z,97457.41
2018-07-03T01:34:24.320Z,97457.38
2018-07-03T01:36:54.998Z,97459.21
2018-07-03T01:39:25.479Z,97457.59
2018-07-03T01:41:56.264Z,97457.63
2018-07-03T01:44:26.711Z,97451.45
2018-07-03T01:46:57.261Z,97450.36
2018-07-03T01:49:28.960Z,97454.28
2018-07-03T01:51:59.767Z,97448.66
2018-07-03T01:54:29.769Z,97451.70
2018-07-03T01:57:00.018Z,97451.66
2018-07-03T02:04:41.849Z,97461.59
2018-07-03T02:07:11.827Z,97464.59
2018-07-03T02:09:41.991Z,97460.59
2018-07-03T02:12:12.066Z,97465.66
2018-07-03T02:17:19.051Z,97464.68
2018-07-03T02:19:49.030Z,97464.33
2018-07-03T02:22:19.273Z,97460.01
2018-07-03T02:24:49.283Z,97455.41
2018-07-03T02:27:22.759Z,97453.61
2018-07-03T02:29:53.353Z,97461.95
2018-07-03T02:32:23.311Z,97460.12
2018-07-03T02:34:53.512Z,97469.47
2018-07-03T02:37:24.127Z,97465.66
2018-07-03T02:39:55.594Z,97463.27
2018-07-03T02:42:29.643Z,97469.17
2018-07-03T02:44:59.255Z,97474.75
2018-07-03T02:47:29.775Z,97474.53
2018-07-03T02:50:00.657Z,97476.95
2018-07-03T02:52:30.950Z,97477.53
2018-07-03T02:55:00.996Z,97477.84
2018-07-03T02:57:31.143Z,97481.56
2018-07-03T03:00:01.614Z,97479.39
2018-07-03T03:02:31.800Z,97478.36
2018-07-03T03:05:02.257Z,97484.80
2018-07-03T03:07:32.550Z,97482.09
2018-07-03T03:10:02.745Z,97483.38
2018-07-03T03:12:33.385Z,97483.61
2018-07-03T03:15:04.317Z,97481.20
2018-07-03T03:17:34.464Z,97484.31
2018-07-03T03:20:04.670Z,97487.15
2018-07-03T03:22:53.637Z,97489.11
2018-07-03T03:25:32.599Z,97491.13
2018-07-03T03:28:23.815Z,97490.52
2018-07-03T03:31:04.509Z,97495.77
2018-07-03T03:33:44.930Z,97494.66
2018-07-03T03:36:24.926Z,97493.39
2018-07-03T03:39:11.482Z,97494.30
2018-07-03T03:41:47.028Z,97493.95
2018-07-03T03:44:26.463Z,97505.50
2018-07-03T03:46:59.794Z,97501.48
2018-07-03T03:49:33.254Z,97504.67
2018-07-03T03:52:13.835Z,97504.86
2018-07-03T03:54:50.509Z,97509.45
2018-07-03T04:00:18.362Z,97512.23
2018-07-03T04:02:54.504Z,97514.94
2018-07-03T04:05:32.662Z,97513.38
2018-07-03T04:08:10.800Z,97509.54
2018-07-03T04:10:45.459Z,97515.14
2018-07-03T04:13:22.242Z,97512.13
2018-07-03T04:15:58.800Z,97510.80
2018-07-03T04:18:37.395Z,97514.30
2018-07-03T04:26:42.399Z,97523.32
2018-07-03T04:29:25.151Z,97526.82
2018-07-03T04:32:09.630Z,97525.72
2018-07-03T04:34:49.559Z,97520.92
2018-07-03T04:37:22.976Z,97521.50
2018-07-03T04:40:05.158Z,97518.00
2018-07-03T04:42:50.347Z,97508.39
2018-07-03T04:45:32.848Z,97512.12
2018-07-03T04:48:08.863Z,97524.72
2018-07-03T04:50:54.291Z,97515.30
2018-07-03T04:53:29.885Z,97522.21
2018-07-03T04:56:07.286Z,97520.44
2018-07-03T04:58:47.250Z,97521.77
2018-07-03T05:01:28.308Z,97522.80
2018-07-03T05:04:04.661Z,97521.52
2018-07-03T05:06:42.935Z,97531.34
2018-07-03T05:09:20.696Z,97525.45
2018-07-03T05:11:56.341Z,97527.34
2018-07-03T05:14:30.795Z,97525.70
2018-07-03T05:17:14.370Z,97526.83
2018-07-03T05:19:54.407Z,97529.77
2018-07-03T05:22:30.528Z,97535.10
2018-07-03T05:25:09.388Z,97536.25
2018-07-03T05:27:47.404Z,97536.82
2018-07-03T05:30:24.983Z,97548.08
2018-07-03T05:33:02.699Z,97552.67
2018-07-03T05:35:54.569Z,97548.36
2018-07-03T05:38:41.985Z,97542.77
2018-07-03T05:44:03.936Z,97554.25
2018-07-03T05:46:42.261Z,97563.66
2018-07-03T05:52:04.492Z,97569.03
2018-07-03T05:54:42.201Z,97570.61
2018-07-03T05:57:24.996Z,97579.17
2018-07-03T06:00:03.420Z,97573.05
2018-07-03T06:05:33.159Z,97578.48
2018-07-03T06:08:11.915Z,97575.28
2018-07-03T06:10:52.526Z,97583.32
2018-07-03T06:13:30.863Z,97576.87
2018-07-03T06:16:14.699Z,97581.97
2018-07-03T06:18:59.011Z,97567.20
2018-07-03T06:21:36.933Z,97570.70
2018-07-03T06:24:17.137Z,97567.48
2018-07-03T06:26:52.983Z,97570.95
2018-07-03T06:29:32.232Z,97574.99
2018-07-03T06:32:08.105Z,97577.13
2018-07-03T06:34:44.951Z,97574.19
2018-07-03T06:37:25.790Z,97583.60
2018-07-03T06:40:06.789Z,97581.68
2018-07-03T06:42:45.142Z,97579.28
2018-07-03T06:45:23.121Z,97577.68
2018-07-03T06:50:46.678Z,97583.56
2018-07-03T06:53:31.304Z,97577.31
2018-07-03T06:56:11.828Z,97576.34
2018-07-03T06:58:53.792Z,97579.02
2018-07-03T07:01:43.224Z,97577.68
2018-07-03T07:04:27.537Z,97572.02
2018-07-03T07:07:06.309Z,97579.83
2018-07-03T07:09:49.926Z,97577.65
2018-07-03T07:12:31.145Z,97570.96
2018-07-03T07:15:13.361Z,97574.70
2018-07-03T07:17:51.817Z,97580.08
2018-07-03T07:20:35.662Z,97579.83
2018-07-03T07:23:12.206Z,97577.33
2018-07-03T07:25:58.906Z,97574.64
2018-07-03T07:31:30.508Z,97572.81
2018-07-03T07:34:09.205Z,97565.30
2018-07-03T07:36:44.880Z,97568.20
2018-07-03T07:39:23.899Z,97568.92
2018-07-03T07:42:05.570Z,97562.94
2018-07-03T07:44:42.266Z,97565.91
2018-07-03T07:47:21.831Z,97562.91
2018-07-03T07:50:04.047Z,97567.08
2018-07-03T07:52:43.179Z,97568.41
2018-07-03T07:55:20.120Z,97569.45
2018-07-03T07:57:58.143Z,97565.61
2018-07-03T08:00:34.953Z,97560.39
2018-07-03T08:03:11.995Z,97573.15
2018-07-03T08:05:53.805Z,97572.33
2018-07-03T08:08:34.104Z,97569.11
2018-07-03T08:11:16.981Z,97568.08
2018-07-03T08:13:53.891Z,97558.31
2018-07-03T08:16:32.077Z,97560.91
2018-07-03T08:19:12.438Z,97564.02
2018-07-03T08:21:50.076Z,97559.34
2018-07-03T08:24:27.888Z,97563.81
2018-07-03T08:27:09.769Z,97560.78
2018-07-03T08:29:53.033Z,97562.16
2018-07-03T08:32:36.687Z,97554.20
2018-07-03T08:37:57.179Z,97561.95
2018-07-03T08:40:32.015Z,97563.70
2018-07-03T08:43:10.645Z,97562.47
2018-07-03T08:45:48.041Z,97559.00
2018-07-03T08:48:32.014Z,97563.89
2018-07-03T08:51:11.243Z,97566.97
2018-07-03T08:53:52.712Z,97562.09
2018-07-03T08:56:31.166Z,97570.55
2018-07-03T08:59:07.118Z,97562.41
2018-07-03T09:04:20.337Z,97572.06
2018-07-03T09:06:59.986Z,97568.14
2018-07-03T09:09:42.917Z,97562.41
2018-07-03T09:12:21.111Z,97562.96
2018-07-03T09:17:47.218Z,97560.64
2018-07-03T09:20:28.934Z,97566.06
2018-07-03T09:23:09.607Z,97570.26
2018-07-03T09:25:46.653Z,97563.64
2018-07-03T09:28:22.568Z,97567.28
2018-07-03T09:30:59.054Z,97570.67
2018-07-03T09:33:35.488Z,97574.11
2018-07-03T09:36:14.002Z,97574.77
2018-07-03T09:38:50.981Z,97566.88
2018-07-03T09:41:28.385Z,97575.33
2018-07-03T09:44:10.985Z,97577.69
2018-07-03T09:46:50.871Z,97574.46
2018-07-03T09:49:31.209Z,97570.47
2018-07-03T09:52:08.822Z,97573.05
2018-07-03T09:54:45.425Z,97572.52
2018-07-03T09:57:29.753Z,97572.38
2018-07-03T10:00:05.530Z,97568.16
2018-07-03T10:02:44.690Z,97570.17
2018-07-03T10:05:22.454Z,97575.58
2018-07-03T10:07:59.129Z,97567.95
2018-07-03T10:10:35.937Z,97563.21
2018-07-03T10:13:14.399Z,97565.44
2018-07-03T10:15:53.347Z,97570.69
2018-07-03T10:18:32.517Z,97573.63
2018-07-03T10:21:09.014Z,97572.81
2018-07-03T10:23:45.392Z,97566.02
2018-07-03T10:26:21.572Z,97563.63
2018-07-03T10:29:03.624Z,97565.95
2018-07-03T10:31:43.903Z,97573.70
2018-07-03T10:37:15.819Z,97564.50
2018-07-03T10:40:00.277Z,97563.36
2018-07-03T10:42:41.766Z,97567.42
2018-07-03T10:45:18.714Z,97577.67
2018-07-03T10:50:38.917Z,97577.30
2018-07-03T10:53:20.171Z,97577.05
2018-07-03T10:55:55.002Z,97577.73
2018-07-03T10:58:34.083Z,97577.81
2018-07-03T11:01:10.952Z,97576.95
2018-07-03T11:03:46.747Z,97571.27
2018-07-03T11:06:29.305Z,97569.90
2018-07-03T11:09:05.816Z,97564.18
2018-07-03T11:11:40.222Z,97560.30
2018-07-03T11:14:21.797Z,97561.41
2018-07-03T11:17:00.100Z,97563.78
2018-07-03T11:19:40.407Z,97562.77
2018-07-03T11:22:18.386Z,97569.19
2018-07-03T11:24:54.897Z,97560.34
2018-07-03T11:27:36.287Z,97557.57
2018-07-03T11:30:19.017Z,97550.10
2018-07-03T11:32:54.451Z,97541.45
2018-07-03T11:35:28.548Z,97540.20
2018-07-03T11:38:11.711Z,97539.31
2018-07-03T11:40:49.337Z,97546.86
2018-07-03T11:43:29.958Z,97546.52
2018-07-03T11:46:11.502Z,97539.58
2018-07-03T11:48:50.557Z,97539.77
2018-07-03T11:51:28.302Z,97529.56
2018-07-03T11:54:09.160Z,97528.62
2018-07-03T11:56:45.068Z,97531.78
2018-07-03T11:59:26.358Z,97525.79
2018-07-03T12:02:09.473Z,97522.13
2018-07-03T12:04:54.964Z,97521.23
2018-07-03T12:07:32.757Z,97523.40
2018-07-03T12:10:19.525Z,97514.97
2018-07-03T12:12:59.081Z,97513.67
2018-07-03T12:15:37.358Z,97509.30
2018-07-03T12:18:21.425Z,97508.98
2018-07-03T12:20:55.750Z,97509.42
2018-07-03T12:23:39.966Z,97503.02
2018-07-03T12:26:17.734Z,97499.05
2018-07-03T12:28:59.175Z,97501.70
2018-07-03T12:31:34.418Z,97504.34
2018-07-03T12:34:09.310Z,97507.20
2018-07-03T12:36:49.697Z,97501.83
2018-07-03T12:39:35.211Z,97497.05
2018-07-03T12:42:14.076Z,97491.83
2018-07-03T12:44:49.977Z,97487.36
2018-07-03T12:47:25.743Z,97483.87
2018-07-03T12:52:44.152Z,97480.56
2018-07-03T12:55:18.450Z,97475.75
2018-07-03T12:57:53.926Z,97473.20
2018-07-03T13:00:37.295Z,97476.22
2018-07-03T13:03:16.501Z,97474.00
2018-07-03T13:05:55.434Z,97477.45
2018-07-03T13:08:33.895Z,97477.13
2018-07-03T13:11:16.516Z,97466.64
2018-07-03T13:13:54.323Z,97460.09
2018-07-03T13:16:31.281Z,97463.48
2018-07-03T13:19:14.689Z,97460.33
2018-07-03T13:21:56.528Z,97459.68
2018-07-03T13:24:32.066Z,97456.63
2018-07-03T13:27:09.354Z,97451.14
2018-07-03T13:32:32.442Z,97446.39
2018-07-03T13:35:18.287Z,97442.05
2018-07-03T13:38:03.889Z,97434.04
2018-07-03T13:40:39.983Z,97434.66
2018-07-03T13:43:18.866Z,97437.58
2018-07-03T13:46:01.990Z,97436.79
2018-07-03T13:48:40.932Z,97429.56
2018-07-03T13:51:23.916Z,97436.61
2018-07-03T13:54:00.040Z,97433.17
2018-07-03T13:56:32.569Z,97431.18
2018-07-03T13:59:10.333Z,97430.36
2018-07-03T14:01:52.167Z,97429.58
2018-07-03T14:04:26.984Z,97427.16
2018-07-03T14:09:47.269Z,97423.05
2018-07-03T14:12:27.114Z,97420.07
2018-07-03T14:15:08.228Z,97429.10
2018-07-03T14:17:47.558Z,97422.61
2018-07-03T14:20:28.956Z,97413.41
2018-07-03T14:23:07.250Z,97408.92
2018-07-03T14:25:44.480Z,97408.91
2018-07-03T14:28:24.128Z,97405.00
2018-07-03T14:31:00.837Z,97401.31
2018-07-03T14:33:42.628Z,97402.44
2018-07-03T14:36:17.061Z,97400.55
2018-07-03T14:38:53.875Z,97396.68
2018-07-03T14:41:33.940Z,97405.72
2018-07-03T14:44:09.292Z,97404.44
2018-07-03T14:46:47.795Z,97404.78
2018-07-03T14:49:28.142Z,97407.02
2018-07-03T14:52:04.122Z,97399.83
2018-07-03T14:54:44.142Z,97395.83
2018-07-03T14:57:25.146Z,97398.84
2018-07-03T15:00:00.604Z,97395.16
2018-07-03T15:02:39.804Z,97400.90
2018-07-03T15:05:16.273Z,97407.49
2018-07-03T15:07:58.811Z,97411.31
2018-07-03T15:10:38.553Z,97407.51
2018-07-03T15:13:16.703Z,97404.80
2018-07-03T15:15:52.005Z,97406.16
2018-07-03T15:18:31.434Z,97408.20
2018-07-03T15:21:10.784Z,97410.19
2018-07-03T15:23:53.602Z,97412.69
2018-07-03T15:26:38.630Z,97412.23
2018-07-03T15:29:18.483Z,97402.44
2018-07-03T15:32:05.020Z,97394.97
2018-07-03T15:34:42.508Z,97400.65
2018-07-03T15:37:25.432Z,97404.95
2018-07-03T15:40:05.104Z,97404.34
2018-07-03T15:42:44.021Z,97398.18
2018-07-03T15:45:31.758Z,97390.97
2018-07-03T15:48:12.134Z,97395.77
2018-07-03T15:50:50.463Z,97400.29
2018-07-03T15:56:09.460Z,97403.83
2018-07-03T15:58:46.292Z,97412.73
2018-07-03T16:06:20.616Z,97421.36
2018-07-03T16:09:07.415Z,97424.30
2018-07-03T16:11:47.476Z,97419.98
2018-07-03T16:14:30.175Z,97424.73
2018-07-03T16:17:08.018Z,97426.93
2018-07-03T16:19:57.287Z,97428.11
2018-07-03T16:22:39.877Z,97426.01
2018-07-03T16:25:18.823Z,97423.54
2018-07-03T16:28:00.753Z,97425.52
2018-07-03T16:30:38.920Z,97418.24
2018-07-03T16:33:21.544Z,97420.35
2018-07-03T16:35:59.189Z,97428.19
2018-07-03T16:38:34.769Z,97430.06
2018-07-03T16:41:12.579Z,97425.30
2018-07-03T16:43:49.122Z,97423.92
2018-07-03T16:46:30.368Z,97421.70
2018-07-03T16:49:08.683Z,97414.37
2018-07-03T16:51:43.895Z,97416.66
2018-07-03T16:54:22.626Z,97416.97
2018-07-03T16:57:05.412Z,97410.41
2018-07-03T17:02:18.587Z,97409.84
2018-07-03T17:04:58.692Z,97416.86
2018-07-03T17:07:39.315Z,97422.47
2018-07-03T17:10:19.652Z,97418.90
2018-07-03T17:13:06.800Z,97420.00
2018-07-03T17:15:48.571Z,97424.40
2018-07-03T17:18:26.149Z,97419.80
2018-07-03T17:21:04.228Z,97422.77
2018-07-03T17:23:48.907Z,97428.74
2018-07-03T17:26:26.359Z,97412.43
2018-07-03T17:29:08.645Z,97423.65
2018-07-03T17:31:56.977Z,97424.42
2018-07-03T17:34:45.555Z,97428.65
2018-07-03T17:37:37.715Z,97433.58
2018-07-03T17:40:29.804Z,97436.91
2018-07-03T17:43:36.293Z,97428.83
2018-07-03T17:46:27.087Z,97437.70
2018-07-03T17:49:07.740Z,97440.56
2018-07-03T17:51:52.752Z,97438.39
2018-07-03T17:54:43.994Z,97447.40
2018-07-03T17:57:37.875Z,97454.09
2018-07-03T18:03:18.851Z,97455.36
2018-07-03T18:06:07.188Z,97454.70
2018-07-03T18:08:48.214Z,97456.71
2018-07-03T18:11:35.283Z,97457.53
2018-07-03T18:14:20.870Z,97456.16
2018-07-03T18:17:09.420Z,97453.58
2018-07-03T18:22:49.736Z,97461.67
2018-07-03T18:28:28.696Z,97462.61
2018-07-03T18:31:17.722Z,97470.80
2018-07-03T18:33:59.723Z,97470.06
2018-07-03T18:36:45.497Z,97468.24
2018-07-03T18:39:36.224Z,97474.48
2018-07-03T18:42:26.907Z,97474.34
2018-07-03T18:45:09.191Z,97476.14
2018-07-03T18:47:52.845Z,97478.06
2018-07-03T18:53:33.247Z,97477.40
2018-07-03T18:56:17.252Z,97475.27
2018-07-03T18:59:05.343Z,97475.07
2018-07-03T19:01:52.071Z,97474.42
2018-07-03T19:04:38.827Z,97478.05
2018-07-03T19:07:18.416Z,97476.76
2018-07-03T19:10:03.595Z,97477.81
2018-07-03T19:12:53.840Z,97485.35
2018-07-03T19:15:44.798Z,97491.20
2018-07-03T19:18:36.108Z,97486.02
2018-07-03T19:21:21.761Z,97487.77
2018-07-03T19:24:12.299Z,97502.29
2018-07-03T19:26:59.287Z,97504.73
2018-07-03T19:32:59.951Z,97499.03
2018-07-03T19:35:58.694Z,97514.80
2018-07-03T19:38:55.101Z,97532.62
2018-07-03T19:41:43.752Z,97528.30
2018-07-03T19:47:26.577Z,97530.11
2018-07-03T19:50:20.576Z,97529.30
2018-07-03T19:53:18.536Z,97528.26
2018-07-03T19:56:10.772Z,97528.96
2018-07-03T19:58:53.026Z,97535.38
2018-07-03T20:01:49.397Z,97534.34
2018-07-03T20:07:29.460Z,97531.06
2018-07-03T20:10:19.730Z,97533.22
2018-07-03T20:13:17.823Z,97528.38
2018-07-03T20:16:03.719Z,97533.77
2018-07-03T20:18:54.780Z,97530.77
2018-07-03T20:21:46.860Z,97526.80
2018-07-03T20:27:22.964Z,97526.64
2018-07-03T20:30:15.919Z,97527.18
2018-07-03T20:33:13.563Z,97526.09
2018-07-03T20:36:08.788Z,97522.58
2018-07-03T20:42:00.393Z,97513.19
2018-07-03T20:47:49.303Z,97517.28
2018-07-03T20:50:43.221Z,97508.91
2018-07-03T20:53:46.721Z,97514.82
2018-07-03T20:56:42.415Z,97514.91
2018-07-03T21:02:29.757Z,97502.67
2018-07-03T21:05:31.231Z,97496.50
2018-07-03T21:08:27.446Z,97487.91
2018-07-03T21:11:17.912Z,97490.38
2018-07-03T21:17:05.768Z,97506.72
2018-07-03T21:19:59.280Z,97504.05
2018-07-03T21:28:44.584Z,97506.75
2018-07-03T21:31:39.152Z,97511.88
2018-07-03T21:34:30.589Z,97516.45
2018-07-03T21:37:23.646Z,97522.29
2018-07-03T21:40:18.640Z,97522.30
2018-07-03T21:43:12.980Z,97525.53
2018-07-03T21:51:55.453Z,97528.75
2018-07-03T21:57:42.168Z,97519.13
2018-07-03T22:00:47.348Z,97518.32
2018-07-03T22:03:34.717Z,97518.05
2018-07-03T22:06:28.276Z,97514.55
2018-07-03T22:09:23.173Z,97511.32
2018-07-03T22:12:20.937Z,97511.63
2018-07-03T22:15:06.101Z,97525.02
2018-07-03T22:18:02.464Z,97530.63
2018-07-03T22:20:54.010Z,97529.02
2018-07-03T22:23:54.564Z,97536.81
2018-07-03T22:29:39.062Z,97530.91
2018-07-03T22:35:31.225Z,97538.67
2018-07-03T22:38:20.558Z,97543.23
2018-07-03T22:41:13.669Z,97557.48
2018-07-03T22:44:15.973Z,97558.28
2018-07-03T22:47:15.943Z,97560.14
2018-07-03T22:50:00.918Z,97555.55
2018-07-03T22:52:54.594Z,97559.81
2018-07-03T22:55:37.628Z,97557.73
2018-07-03T22:58:24.611Z,97568.75
2018-07-03T23:01:12.524Z,97570.02
2018-07-03T23:03:58.774Z,97566.73
2018-07-03T23:06:50.287Z,97563.95
2018-07-03T23:09:39.309Z,97558.94
2018-07-03T23:12:30.110Z,97557.13
2018-07-03T23:15:18.197Z,97560.63
2018-07-03T23:18:12.008Z,97553.92
2018-07-03T23:23:52.939Z,97552.55
2018-07-03T23:26:38.712Z,97551.52
2018-07-03T23:29:26.155Z,97552.53
2018-07-03T23:32:15.543Z,97553.86
2018-07-03T23:35:06.116Z,97559.72
2018-07-03T23:37:52.692Z,97551.47
2018-07-03T23:40:36.336Z,97556.62
2018-07-03T23:43:27.843Z,97556.59
2018-07-03T23:46:06.830Z,97551.12
2018-07-03T23:48:59.931Z,97547.36
2018-07-03T23:51:55.057Z,97561.87
2018-07-03T23:54:55.059Z,97563.77
2018-07-03T23:57:49.875Z,97566.16
